Terminal Aerodrome Forecast
Issued by NWS Shreveport, LA

Home | Current Version | Previous Version | Text Only | Print | Product List | Glossary On
Versions: 1 2 3 4 5 6 7 8 9 10 11 12 13 14 15 16 17 18 19 20 21 22
000
FTUS44 KSHV 230500
TAFGGG
TAF
KGGG 230523Z 2306/2406 VRB03KT P6SM SKC
      TEMPO 2310/2313 5SM BR
     FM231500 15009KT P6SM FEW040
     FM240000 14007KT P6SM FEW050 SCT250=

USA.gov is the U.S. government's official web portal to all federal, state and local government web resources and services.